ENNM

Details ICAO ENNM (OSY)
Name Namsos
Region Norway
Timezone Unknown (UTC+0.0)
Plans Departing 12
Arriving 6
Stats Elevation 7 ft / 2 m (AMSL)
Location 64.472282° 11.578579°
Runways 1
Magnetic Variation 3.985° E
Sunrise 2018-05-24 01:27:52 UTC / 2018-05-24 01:27:52 Local
Sunset 2018-05-24 20:56:03 UTC / 2018-05-24 20:56:03 Local
Advertisement - Login to hide

Runways

ID Width Length Bearing (true) Bearing (mag) Surface Threshold Offset Overrun Length
07 98 ft / 30 m 2,759 ft / 841 m 73.79° 69.80° Asphalt 0 ft / 0 m 0 ft / 0 m
25 98 ft / 30 m 2,759 ft / 841 m 253.81° 249.82° Asphalt 0 ft / 0 m 0 ft / 0 m

Map

Weather


0- 5 10 15 20 25 30 35+ Temperature / ° C

Clouds and Precipitation
Forecast for 2018-05-24 06:00 UTC. Updated 3 hours ago

Ground ~20,000 ft ~40,000 ft Winds

METAR

ENNM 240820Z 05012KT CAVOK 15/03 Q1027

TAF

Not found
Warning: Do not use this data for real-world aviation or navigation. No guarantee of current accuracy is given.